sensor_id;sensor_type;location;lat;lon;timestamp;P1;durP1;ratioP1;P2;durP2;ratioP2
32932;SDS011;19444;50.518;10.870;2022-07-29T00:01:04;3.30;;;1.40;;
32932;SDS011;19444;50.518;10.870;2022-07-29T00:04:01;3.05;;;1.10;;
32932;SDS011;19444;50.518;10.870;2022-07-29T00:06:58;4.60;;;1.20;;
32932;SDS011;19444;50.518;10.870;2022-07-29T00:09:55;4.28;;;1.35;;
32932;SDS011;19444;50.518;10.870;2022-07-29T00:12:52;3.65;;;1.17;;
32932;SDS011;19444;50.518;10.870;2022-07-29T00:15:50;6.78;;;1.35;;
32932;SDS011;19444;50.518;10.870;2022-07-29T00:18:47;3.28;;;1.20;;
32932;SDS011;19444;50.518;10.870;2022-07-29T00:21:44;4.53;;;1.50;;
32932;SDS011;19444;50.518;10.870;2022-07-29T00:24:41;2.15;;;1.52;;
32932;SDS011;19444;50.518;10.870;2022-07-29T00:27:38;4.10;;;1.52;;
32932;SDS011;19444;50.518;10.870;2022-07-29T00:30:35;7.88;;;1.60;;
32932;SDS011;19444;50.518;10.870;2022-07-29T00:33:32;2.00;;;1.05;;
32932;SDS011;19444;50.518;10.870;2022-07-29T00:36:29;5.93;;;1.38;;
32932;SDS011;19444;50.518;10.870;2022-07-29T00:39:26;3.58;;;1.10;;
32932;SDS011;19444;50.518;10.870;2022-07-29T00:42:24;2.63;;;1.10;;
32932;SDS011;19444;50.518;10.870;2022-07-29T00:45:20;4.15;;;1.30;;
32932;SDS011;19444;50.518;10.870;2022-07-29T00:48:18;3.60;;;1.20;;
32932;SDS011;19444;50.518;10.870;2022-07-29T00:51:15;1.65;;;0.98;;
32932;SDS011;19444;50.518;10.870;2022-07-29T00:54:12;9.57;;;1.75;;
32932;SDS011;19444;50.518;10.870;2022-07-29T00:57:09;3.10;;;1.25;;
32932;SDS011;19444;50.518;10.870;2022-07-29T01:00:08;2.78;;;1.30;;
32932;SDS011;19444;50.518;10.870;2022-07-29T01:03:09;3.28;;;1.60;;
32932;SDS011;19444;50.518;10.870;2022-07-29T01:06:05;3.58;;;1.10;;
32932;SDS011;19444;50.518;10.870;2022-07-29T01:09:02;3.33;;;1.20;;
32932;SDS011;19444;50.518;10.870;2022-07-29T01:12:00;4.30;;;1.70;;
32932;SDS011;19444;50.518;10.870;2022-07-29T01:14:58;4.50;;;1.10;;
32932;SDS011;19444;50.518;10.870;2022-07-29T01:21:43;3.53;;;1.40;;
32932;SDS011;19444;50.518;10.870;2022-07-29T01:25:02;3.42;;;1.17;;
32932;SDS011;19444;50.518;10.870;2022-07-29T01:35:25;3.17;;;1.20;;
32932;SDS011;19444;50.518;10.870;2022-07-29T01:38:54;2.45;;;1.02;;
32932;SDS011;19444;50.518;10.870;2022-07-29T01:45:28;4.45;;;1.35;;
32932;SDS011;19444;50.518;10.870;2022-07-29T01:51:50;5.32;;;1.20;;
32932;SDS011;19444;50.518;10.870;2022-07-29T01:54:55;4.13;;;1.38;;
32932;SDS011;19444;50.518;10.870;2022-07-29T01:57:55;2.70;;;1.17;;
32932;SDS011;19444;50.518;10.870;2022-07-29T02:00:53;2.53;;;0.90;;
32932;SDS011;19444;50.518;10.870;2022-07-29T02:03:53;5.88;;;1.30;;
32932;SDS011;19444;50.518;10.870;2022-07-29T02:06:53;4.03;;;1.10;;
32932;SDS011;19444;50.518;10.870;2022-07-29T02:09:53;1.88;;;1.00;;
32932;SDS011;19444;50.518;10.870;2022-07-29T02:12:51;2.67;;;1.17;;
32932;SDS011;19444;50.518;10.870;2022-07-29T02:15:52;4.90;;;1.30;;
32932;SDS011;19444;50.518;10.870;2022-07-29T02:18:52;2.97;;;1.20;;
32932;SDS011;19444;50.518;10.870;2022-07-29T02:21:51;5.03;;;1.08;;
32932;SDS011;19444;50.518;10.870;2022-07-29T02:24:50;5.10;;;1.20;;
32932;SDS011;19444;50.518;10.870;2022-07-29T02:27:49;3.83;;;1.30;;
32932;SDS011;19444;50.518;10.870;2022-07-29T02:30:47;4.05;;;1.17;;
32932;SDS011;19444;50.518;10.870;2022-07-29T02:33:47;3.60;;;1.23;;
32932;SDS011;19444;50.518;10.870;2022-07-29T02:36:46;3.15;;;1.33;;
32932;SDS011;19444;50.518;10.870;2022-07-29T02:39:45;3.60;;;1.08;;
32932;SDS011;19444;50.518;10.870;2022-07-29T02:42:44;3.35;;;1.33;;
32932;SDS011;19444;50.518;10.870;2022-07-29T02:45:43;2.25;;;0.88;;
32932;SDS011;19444;50.518;10.870;2022-07-29T02:48:57;4.43;;;1.25;;
32932;SDS011;19444;50.518;10.870;2022-07-29T02:52:26;3.95;;;1.40;;
32932;SDS011;19444;50.518;10.870;2022-07-29T02:55:35;2.03;;;0.73;;
32932;SDS011;19444;50.518;10.870;2022-07-29T02:58:41;4.70;;;1.15;;
32932;SDS011;19444;50.518;10.870;2022-07-29T03:01:45;4.05;;;1.25;;
32932;SDS011;19444;50.518;10.870;2022-07-29T03:04:43;1.77;;;0.95;;
32932;SDS011;19444;50.518;10.870;2022-07-29T03:07:43;3.53;;;1.15;;
32932;SDS011;19444;50.518;10.870;2022-07-29T03:10:45;4.90;;;1.33;;
32932;SDS011;19444;50.518;10.870;2022-07-29T03:13:43;3.30;;;1.30;;
32932;SDS011;19444;50.518;10.870;2022-07-29T03:16:41;2.10;;;1.20;;
32932;SDS011;19444;50.518;10.870;2022-07-29T03:19:38;2.55;;;1.15;;
32932;SDS011;19444;50.518;10.870;2022-07-29T03:22:42;5.22;;;1.40;;
32932;SDS011;19444;50.518;10.870;2022-07-29T03:25:43;2.92;;;0.93;;
32932;SDS011;19444;50.518;10.870;2022-07-29T03:28:40;2.47;;;1.20;;
32932;SDS011;19444;50.518;10.870;2022-07-29T03:31:37;3.88;;;1.10;;
32932;SDS011;19444;50.518;10.870;2022-07-29T03:34:38;6.05;;;1.20;;
32932;SDS011;19444;50.518;10.870;2022-07-29T03:37:35;4.15;;;1.10;;
32932;SDS011;19444;50.518;10.870;2022-07-29T03:40:43;6.75;;;1.17;;
32932;SDS011;19444;50.518;10.870;2022-07-29T03:43:45;3.15;;;1.20;;
32932;SDS011;19444;50.518;10.870;2022-07-29T03:46:45;2.57;;;1.30;;
32932;SDS011;19444;50.518;10.870;2022-07-29T03:49:44;3.95;;;1.10;;
32932;SDS011;19444;50.518;10.870;2022-07-29T03:52:45;2.30;;;1.00;;
32932;SDS011;19444;50.518;10.870;2022-07-29T03:55:43;3.50;;;1.17;;
32932;SDS011;19444;50.518;10.870;2022-07-29T03:58:44;3.75;;;1.23;;
32932;SDS011;19444;50.518;10.870;2022-07-29T04:01:41;2.53;;;1.13;;
32932;SDS011;19444;50.518;10.870;2022-07-29T04:04:39;3.55;;;1.55;;
32932;SDS011;19444;50.518;10.870;2022-07-29T04:07:36;5.40;;;1.30;;
32932;SDS011;19444;50.518;10.870;2022-07-29T04:10:33;2.42;;;1.00;;
32932;SDS011;19444;50.518;10.870;2022-07-29T04:13:31;2.60;;;1.05;;
32932;SDS011;19444;50.518;10.870;2022-07-29T04:16:28;2.47;;;1.20;;
32932;SDS011;19444;50.518;10.870;2022-07-29T04:19:25;4.40;;;1.50;;
32932;SDS011;19444;50.518;10.870;2022-07-29T04:22:22;5.38;;;1.17;;
32932;SDS011;19444;50.518;10.870;2022-07-29T04:25:20;4.45;;;1.13;;
32932;SDS011;19444;50.518;10.870;2022-07-29T04:28:17;2.60;;;1.20;;
32932;SDS011;19444;50.518;10.870;2022-07-29T04:31:14;4.15;;;1.38;;
32932;SDS011;19444;50.518;10.870;2022-07-29T04:34:11;3.83;;;1.17;;
32932;SDS011;19444;50.518;10.870;2022-07-29T04:37:09;4.35;;;1.10;;
32932;SDS011;19444;50.518;10.870;2022-07-29T04:40:06;6.38;;;1.33;;
32932;SDS011;19444;50.518;10.870;2022-07-29T04:43:03;6.32;;;1.35;;
32932;SDS011;19444;50.518;10.870;2022-07-29T04:46:01;3.22;;;1.55;;
32932;SDS011;19444;50.518;10.870;2022-07-29T04:48:59;2.17;;;1.20;;
32932;SDS011;19444;50.518;10.870;2022-07-29T04:51:56;6.18;;;1.20;;
32932;SDS011;19444;50.518;10.870;2022-07-29T04:54:54;6.65;;;1.40;;
32932;SDS011;19444;50.518;10.870;2022-07-29T04:57:50;2.78;;;1.10;;
32932;SDS011;19444;50.518;10.870;2022-07-29T05:00:47;2.10;;;1.17;;
32932;SDS011;19444;50.518;10.870;2022-07-29T05:03:44;2.47;;;1.30;;
32932;SDS011;19444;50.518;10.870;2022-07-29T05:06:41;4.88;;;1.40;;
32932;SDS011;19444;50.518;10.870;2022-07-29T05:09:38;3.00;;;1.20;;
32932;SDS011;19444;50.518;10.870;2022-07-29T05:12:35;4.53;;;1.23;;
32932;SDS011;19444;50.518;10.870;2022-07-29T05:15:32;2.40;;;1.17;;
32932;SDS011;19444;50.518;10.870;2022-07-29T05:18:31;4.65;;;1.30;;
32932;SDS011;19444;50.518;10.870;2022-07-29T05:21:27;2.20;;;1.20;;
32932;SDS011;19444;50.518;10.870;2022-07-29T05:24:24;5.82;;;1.98;;
32932;SDS011;19444;50.518;10.870;2022-07-29T05:27:22;1.80;;;1.20;;
32932;SDS011;19444;50.518;10.870;2022-07-29T05:30:18;2.85;;;1.20;;
32932;SDS011;19444;50.518;10.870;2022-07-29T05:33:16;3.88;;;1.20;;
32932;SDS011;19444;50.518;10.870;2022-07-29T05:36:31;1.60;;;0.95;;
32932;SDS011;19444;50.518;10.870;2022-07-29T05:39:28;4.35;;;1.15;;
32932;SDS011;19444;50.518;10.870;2022-07-29T05:42:43;3.42;;;1.27;;
32932;SDS011;19444;50.518;10.870;2022-07-29T05:45:40;3.85;;;1.45;;
32932;SDS011;19444;50.518;10.870;2022-07-29T05:48:45;3.78;;;1.10;;
32932;SDS011;19444;50.518;10.870;2022-07-29T05:51:42;2.55;;;1.15;;
32932;SDS011;19444;50.518;10.870;2022-07-29T05:54:39;2.58;;;1.10;;
32932;SDS011;19444;50.518;10.870;2022-07-29T05:57:36;2.70;;;1.30;;
32932;SDS011;19444;50.518;10.870;2022-07-29T06:00:33;3.50;;;1.40;;
32932;SDS011;19444;50.518;10.870;2022-07-29T06:03:30;4.80;;;1.95;;
32932;SDS011;19444;50.518;10.870;2022-07-29T06:06:27;2.60;;;1.33;;
32932;SDS011;19444;50.518;10.870;2022-07-29T06:09:24;2.50;;;1.05;;
32932;SDS011;19444;50.518;10.870;2022-07-29T06:12:22;1.77;;;1.00;;
32932;SDS011;19444;50.518;10.870;2022-07-29T06:15:19;3.38;;;1.13;;
32932;SDS011;19444;50.518;10.870;2022-07-29T06:18:16;4.30;;;1.45;;
32932;SDS011;19444;50.518;10.870;2022-07-29T06:21:13;4.55;;;1.42;;
32932;SDS011;19444;50.518;10.870;2022-07-29T06:24:13;4.15;;;1.25;;
32932;SDS011;19444;50.518;10.870;2022-07-29T06:27:11;2.90;;;1.33;;
32932;SDS011;19444;50.518;10.870;2022-07-29T06:30:08;2.53;;;1.45;;
32932;SDS011;19444;50.518;10.870;2022-07-29T06:33:06;3.10;;;1.40;;
32932;SDS011;19444;50.518;10.870;2022-07-29T06:36:03;4.85;;;1.60;;
32932;SDS011;19444;50.518;10.870;2022-07-29T06:39:05;3.90;;;1.40;;
32932;SDS011;19444;50.518;10.870;2022-07-29T06:42:03;3.58;;;1.58;;
32932;SDS011;19444;50.518;10.870;2022-07-29T06:45:01;3.90;;;1.45;;
32932;SDS011;19444;50.518;10.870;2022-07-29T06:48:04;4.15;;;1.60;;
32932;SDS011;19444;50.518;10.870;2022-07-29T06:51:01;3.13;;;1.65;;
32932;SDS011;19444;50.518;10.870;2022-07-29T06:54:00;2.85;;;1.33;;
32932;SDS011;19444;50.518;10.870;2022-07-29T06:56:58;4.38;;;1.70;;
32932;SDS011;19444;50.518;10.870;2022-07-29T06:59:56;3.47;;;1.40;;
32932;SDS011;19444;50.518;10.870;2022-07-29T07:02:53;1.73;;;1.02;;
32932;SDS011;19444;50.518;10.870;2022-07-29T07:05:51;4.40;;;1.83;;
32932;SDS011;19444;50.518;10.870;2022-07-29T07:08:49;4.97;;;1.70;;
32932;SDS011;19444;50.518;10.870;2022-07-29T07:11:46;3.47;;;1.45;;
32932;SDS011;19444;50.518;10.870;2022-07-29T07:14:45;1.83;;;1.40;;
32932;SDS011;19444;50.518;10.870;2022-07-29T07:17:42;2.80;;;1.20;;
32932;SDS011;19444;50.518;10.870;2022-07-29T07:20:39;3.05;;;1.38;;
32932;SDS011;19444;50.518;10.870;2022-07-29T07:23:36;3.88;;;1.75;;
32932;SDS011;19444;50.518;10.870;2022-07-29T07:26:33;4.07;;;1.50;;
32932;SDS011;19444;50.518;10.870;2022-07-29T07:29:30;3.25;;;1.50;;
32932;SDS011;19444;50.518;10.870;2022-07-29T07:32:26;5.10;;;1.63;;
32932;SDS011;19444;50.518;10.870;2022-07-29T07:35:23;2.63;;;1.30;;
32932;SDS011;19444;50.518;10.870;2022-07-29T07:38:20;4.20;;;1.42;;
32932;SDS011;19444;50.518;10.870;2022-07-29T07:41:17;4.40;;;1.58;;
32932;SDS011;19444;50.518;10.870;2022-07-29T07:44:14;5.68;;;1.80;;
32932;SDS011;19444;50.518;10.870;2022-07-29T07:47:11;2.35;;;1.58;;
32932;SDS011;19444;50.518;10.870;2022-07-29T07:50:10;4.13;;;1.58;;
32932;SDS011;19444;50.518;10.870;2022-07-29T07:53:14;5.53;;;1.75;;
32932;SDS011;19444;50.518;10.870;2022-07-29T07:56:11;3.08;;;1.30;;
32932;SDS011;19444;50.518;10.870;2022-07-29T07:59:08;3.97;;;1.50;;
32932;SDS011;19444;50.518;10.870;2022-07-29T08:02:06;2.50;;;1.30;;
32932;SDS011;19444;50.518;10.870;2022-07-29T08:05:06;7.13;;;1.80;;
32932;SDS011;19444;50.518;10.870;2022-07-29T08:08:08;5.53;;;2.10;;
32932;SDS011;19444;50.518;10.870;2022-07-29T08:11:04;3.78;;;2.08;;
32932;SDS011;19444;50.518;10.870;2022-07-29T08:14:05;4.45;;;1.60;;
32932;SDS011;19444;50.518;10.870;2022-07-29T08:17:02;5.78;;;2.42;;
32932;SDS011;19444;50.518;10.870;2022-07-29T08:19:59;3.85;;;1.85;;
32932;SDS011;19444;50.518;10.870;2022-07-29T08:22:56;3.17;;;1.70;;
32932;SDS011;19444;50.518;10.870;2022-07-29T08:25:53;3.28;;;1.65;;
32932;SDS011;19444;50.518;10.870;2022-07-29T08:28:50;3.83;;;1.63;;
32932;SDS011;19444;50.518;10.870;2022-07-29T08:31:47;4.68;;;1.90;;
32932;SDS011;19444;50.518;10.870;2022-07-29T08:34:43;4.80;;;2.15;;
32932;SDS011;19444;50.518;10.870;2022-07-29T08:37:42;2.55;;;2.00;;
32932;SDS011;19444;50.518;10.870;2022-07-29T08:40:39;2.80;;;1.92;;
32932;SDS011;19444;50.518;10.870;2022-07-29T08:43:35;3.67;;;2.20;;
32932;SDS011;19444;50.518;10.870;2022-07-29T08:46:34;3.78;;;2.05;;
32932;SDS011;19444;50.518;10.870;2022-07-29T08:49:35;5.78;;;2.00;;
32932;SDS011;19444;50.518;10.870;2022-07-29T08:52:33;3.60;;;2.17;;
32932;SDS011;19444;50.518;10.870;2022-07-29T08:55:33;1.75;;;1.50;;
32932;SDS011;19444;50.518;10.870;2022-07-29T08:58:31;3.60;;;1.95;;
32932;SDS011;19444;50.518;10.870;2022-07-29T09:01:33;3.47;;;2.15;;
32932;SDS011;19444;50.518;10.870;2022-07-29T09:04:40;4.28;;;2.20;;
32932;SDS011;19444;50.518;10.870;2022-07-29T09:07:38;3.78;;;2.53;;
32932;SDS011;19444;50.518;10.870;2022-07-29T09:10:36;2.55;;;1.90;;
32932;SDS011;19444;50.518;10.870;2022-07-29T09:13:33;3.45;;;2.40;;
32932;SDS011;19444;50.518;10.870;2022-07-29T09:16:45;3.95;;;2.55;;
32932;SDS011;19444;50.518;10.870;2022-07-29T09:19:50;3.10;;;1.70;;
32932;SDS011;19444;50.518;10.870;2022-07-29T09:22:48;3.08;;;2.25;;
32932;SDS011;19444;50.518;10.870;2022-07-29T09:25:49;2.65;;;2.28;;
32932;SDS011;19444;50.518;10.870;2022-07-29T09:28:46;3.40;;;2.53;;
32932;SDS011;19444;50.518;10.870;2022-07-29T09:31:46;3.20;;;1.92;;
32932;SDS011;19444;50.518;10.870;2022-07-29T09:34:45;2.78;;;1.55;;
32932;SDS011;19444;50.518;10.870;2022-07-29T09:37:43;4.22;;;2.85;;
32932;SDS011;19444;50.518;10.870;2022-07-29T09:40:40;3.08;;;2.30;;
32932;SDS011;19444;50.518;10.870;2022-07-29T09:46:59;2.95;;;2.42;;
32932;SDS011;19444;50.518;10.870;2022-07-29T09:50:02;3.67;;;2.15;;
32932;SDS011;19444;50.518;10.870;2022-07-29T09:52:59;2.53;;;2.33;;
32932;SDS011;19444;50.518;10.870;2022-07-29T09:55:56;5.35;;;2.80;;
32932;SDS011;19444;50.518;10.870;2022-07-29T09:59:05;4.65;;;2.30;;
32932;SDS011;19444;50.518;10.870;2022-07-29T10:02:11;3.83;;;2.25;;
32932;SDS011;19444;50.518;10.870;2022-07-29T10:05:25;4.15;;;2.67;;
32932;SDS011;19444;50.518;10.870;2022-07-29T10:08:32;3.80;;;2.13;;
32932;SDS011;19444;50.518;10.870;2022-07-29T10:11:28;3.50;;;2.50;;
32932;SDS011;19444;50.518;10.870;2022-07-29T10:14:44;2.95;;;2.08;;
32932;SDS011;19444;50.518;10.870;2022-07-29T10:17:41;6.43;;;2.80;;
32932;SDS011;19444;50.518;10.870;2022-07-29T10:20:39;3.75;;;2.38;;
32932;SDS011;19444;50.518;10.870;2022-07-29T10:23:36;4.05;;;2.20;;
32932;SDS011;19444;50.518;10.870;2022-07-29T10:26:42;3.63;;;2.00;;
32932;SDS011;19444;50.518;10.870;2022-07-29T10:29:40;4.30;;;2.40;;
32932;SDS011;19444;50.518;10.870;2022-07-29T10:36:18;5.95;;;2.80;;
32932;SDS011;19444;50.518;10.870;2022-07-29T10:42:58;5.05;;;3.08;;
32932;SDS011;19444;50.518;10.870;2022-07-29T10:46:11;4.07;;;3.00;;
32932;SDS011;19444;50.518;10.870;2022-07-29T10:49:17;3.28;;;2.60;;
32932;SDS011;19444;50.518;10.870;2022-07-29T10:52:20;5.88;;;2.88;;
32932;SDS011;19444;50.518;10.870;2022-07-29T10:58:38;6.78;;;2.85;;
32932;SDS011;19444;50.518;10.870;2022-07-29T11:01:36;3.08;;;2.22;;
32932;SDS011;19444;50.518;10.870;2022-07-29T11:14:18;5.20;;;2.33;;
32932;SDS011;19444;50.518;10.870;2022-07-29T11:18:02;5.20;;;3.03;;
32932;SDS011;19444;50.518;10.870;2022-07-29T11:21:00;3.45;;;2.67;;
32932;SDS011;19444;50.518;10.870;2022-07-29T11:24:13;3.05;;;1.90;;
32932;SDS011;19444;50.518;10.870;2022-07-29T11:27:24;3.65;;;2.10;;
32932;SDS011;19444;50.518;10.870;2022-07-29T11:30:50;4.15;;;2.67;;
32932;SDS011;19444;50.518;10.870;2022-07-29T11:33:51;3.05;;;2.70;;
32932;SDS011;19444;50.518;10.870;2022-07-29T11:43:03;4.72;;;3.35;;
32932;SDS011;19444;50.518;10.870;2022-07-29T11:46:02;3.40;;;3.10;;
32932;SDS011;19444;50.518;10.870;2022-07-29T11:49:00;4.07;;;3.00;;
32932;SDS011;19444;50.518;10.870;2022-07-29T11:52:04;6.63;;;2.70;;
32932;SDS011;19444;50.518;10.870;2022-07-29T11:55:06;3.47;;;2.80;;
32932;SDS011;19444;50.518;10.870;2022-07-29T11:58:05;4.57;;;3.03;;
32932;SDS011;19444;50.518;10.870;2022-07-29T12:01:02;2.63;;;2.15;;
32932;SDS011;19444;50.518;10.870;2022-07-29T12:04:07;5.13;;;2.75;;
32932;SDS011;19444;50.518;10.870;2022-07-29T12:07:06;3.83;;;2.70;;
32932;SDS011;19444;50.518;10.870;2022-07-29T12:10:08;5.22;;;2.75;;
32932;SDS011;19444;50.518;10.870;2022-07-29T12:13:17;2.88;;;2.58;;
32932;SDS011;19444;50.518;10.870;2022-07-29T12:16:17;4.07;;;2.80;;
32932;SDS011;19444;50.518;10.870;2022-07-29T12:19:24;3.00;;;2.30;;
32932;SDS011;19444;50.518;10.870;2022-07-29T12:22:26;5.68;;;3.30;;
32932;SDS011;19444;50.518;10.870;2022-07-29T12:25:34;3.30;;;2.17;;
32932;SDS011;19444;50.518;10.870;2022-07-29T12:28:36;3.33;;;3.03;;
32932;SDS011;19444;50.518;10.870;2022-07-29T12:31:34;4.07;;;2.53;;
32932;SDS011;19444;50.518;10.870;2022-07-29T12:34:40;6.10;;;2.83;;
32932;SDS011;19444;50.518;10.870;2022-07-29T12:37:37;3.65;;;2.55;;
32932;SDS011;19444;50.518;10.870;2022-07-29T12:43:34;3.45;;;2.88;;
32932;SDS011;19444;50.518;10.870;2022-07-29T12:46:31;1.98;;;1.60;;
32932;SDS011;19444;50.518;10.870;2022-07-29T12:49:28;2.00;;;1.55;;
32932;SDS011;19444;50.518;10.870;2022-07-29T12:52:33;2.20;;;1.60;;
32932;SDS011;19444;50.518;10.870;2022-07-29T12:58:41;2.13;;;1.33;;
32932;SDS011;19444;50.518;10.870;2022-07-29T13:01:40;2.65;;;1.75;;
32932;SDS011;19444;50.518;10.870;2022-07-29T13:04:37;2.08;;;1.30;;
32932;SDS011;19444;50.518;10.870;2022-07-29T13:07:34;1.35;;;1.15;;
32932;SDS011;19444;50.518;10.870;2022-07-29T13:10:52;2.22;;;1.58;;
32932;SDS011;19444;50.518;10.870;2022-07-29T13:13:51;3.35;;;1.95;;
32932;SDS011;19444;50.518;10.870;2022-07-29T13:20:28;2.33;;;1.60;;
32932;SDS011;19444;50.518;10.870;2022-07-29T13:23:26;2.58;;;1.83;;
32932;SDS011;19444;50.518;10.870;2022-07-29T13:26:23;2.97;;;2.10;;
32932;SDS011;19444;50.518;10.870;2022-07-29T13:29:19;3.55;;;1.88;;
32932;SDS011;19444;50.518;10.870;2022-07-29T13:32:18;4.18;;;1.70;;
32932;SDS011;19444;50.518;10.870;2022-07-29T13:35:24;2.75;;;1.83;;
32932;SDS011;19444;50.518;10.870;2022-07-29T13:38:20;1.83;;;1.58;;
32932;SDS011;19444;50.518;10.870;2022-07-29T13:41:26;2.15;;;1.90;;
32932;SDS011;19444;50.518;10.870;2022-07-29T13:44:23;4.13;;;2.35;;
32932;SDS011;19444;50.518;10.870;2022-07-29T13:47:21;3.00;;;2.67;;
32932;SDS011;19444;50.518;10.870;2022-07-29T13:50:28;2.70;;;1.90;;
32932;SDS011;19444;50.518;10.870;2022-07-29T13:53:25;3.00;;;2.50;;
32932;SDS011;19444;50.518;10.870;2022-07-29T13:56:23;3.42;;;2.42;;
32932;SDS011;19444;50.518;10.870;2022-07-29T13:59:20;4.40;;;2.38;;
32932;SDS011;19444;50.518;10.870;2022-07-29T14:02:17;2.63;;;2.40;;
32932;SDS011;19444;50.518;10.870;2022-07-29T14:05:14;3.42;;;2.20;;
32932;SDS011;19444;50.518;10.870;2022-07-29T14:08:11;2.55;;;2.33;;
32932;SDS011;19444;50.518;10.870;2022-07-29T14:11:08;3.55;;;2.25;;
32932;SDS011;19444;50.518;10.870;2022-07-29T14:14:08;2.67;;;2.47;;
32932;SDS011;19444;50.518;10.870;2022-07-29T14:17:06;2.38;;;1.85;;
32932;SDS011;19444;50.518;10.870;2022-07-29T14:20:06;3.47;;;2.10;;
32932;SDS011;19444;50.518;10.870;2022-07-29T14:23:03;3.05;;;1.85;;
32932;SDS011;19444;50.518;10.870;2022-07-29T14:26:00;4.50;;;2.42;;
32932;SDS011;19444;50.518;10.870;2022-07-29T14:28:57;3.05;;;2.10;;
32932;SDS011;19444;50.518;10.870;2022-07-29T14:31:54;2.10;;;1.90;;
32932;SDS011;19444;50.518;10.870;2022-07-29T14:34:51;2.53;;;1.83;;
32932;SDS011;19444;50.518;10.870;2022-07-29T14:37:48;3.03;;;2.45;;
32932;SDS011;19444;50.518;10.870;2022-07-29T14:40:45;3.00;;;2.05;;
32932;SDS011;19444;50.518;10.870;2022-07-29T14:46:42;3.13;;;1.77;;
32932;SDS011;19444;50.518;10.870;2022-07-29T14:49:43;2.80;;;2.00;;
32932;SDS011;19444;50.518;10.870;2022-07-29T14:52:40;2.10;;;1.90;;
32932;SDS011;19444;50.518;10.870;2022-07-29T14:55:37;3.35;;;2.10;;
32932;SDS011;19444;50.518;10.870;2022-07-29T14:58:35;3.30;;;1.67;;
32932;SDS011;19444;50.518;10.870;2022-07-29T15:01:44;4.05;;;2.35;;
32932;SDS011;19444;50.518;10.870;2022-07-29T15:04:41;4.03;;;2.53;;
32932;SDS011;19444;50.518;10.870;2022-07-29T15:07:37;4.13;;;2.50;;
32932;SDS011;19444;50.518;10.870;2022-07-29T15:10:34;3.83;;;2.40;;
32932;SDS011;19444;50.518;10.870;2022-07-29T15:13:31;3.17;;;2.65;;
32932;SDS011;19444;50.518;10.870;2022-07-29T15:16:29;2.60;;;2.35;;
32932;SDS011;19444;50.518;10.870;2022-07-29T15:19:27;2.88;;;2.40;;
32932;SDS011;19444;50.518;10.870;2022-07-29T15:22:24;2.80;;;2.03;;
32932;SDS011;19444;50.518;10.870;2022-07-29T15:25:21;2.72;;;2.22;;
32932;SDS011;19444;50.518;10.870;2022-07-29T15:28:20;3.20;;;1.87;;
32932;SDS011;19444;50.518;10.870;2022-07-29T15:31:17;2.90;;;2.00;;
32932;SDS011;19444;50.518;10.870;2022-07-29T15:34:17;2.35;;;1.85;;
32932;SDS011;19444;50.518;10.870;2022-07-29T15:37:16;2.53;;;1.80;;
32932;SDS011;19444;50.518;10.870;2022-07-29T15:40:13;1.70;;;1.60;;
32932;SDS011;19444;50.518;10.870;2022-07-29T15:43:10;3.55;;;1.90;;
32932;SDS011;19444;50.518;10.870;2022-07-29T15:46:08;2.03;;;1.45;;
32932;SDS011;19444;50.518;10.870;2022-07-29T15:49:27;2.28;;;1.90;;
32932;SDS011;19444;50.518;10.870;2022-07-29T15:52:44;2.30;;;1.77;;
32932;SDS011;19444;50.518;10.870;2022-07-29T15:55:42;2.72;;;2.00;;
32932;SDS011;19444;50.518;10.870;2022-07-29T15:58:39;1.70;;;1.60;;
32932;SDS011;19444;50.518;10.870;2022-07-29T16:01:36;4.05;;;2.03;;
32932;SDS011;19444;50.518;10.870;2022-07-29T16:04:37;3.20;;;1.83;;
32932;SDS011;19444;50.518;10.870;2022-07-29T16:07:34;3.33;;;1.83;;
32932;SDS011;19444;50.518;10.870;2022-07-29T16:10:33;3.17;;;2.00;;
32932;SDS011;19444;50.518;10.870;2022-07-29T16:13:29;3.90;;;2.33;;
32932;SDS011;19444;50.518;10.870;2022-07-29T16:16:27;3.92;;;2.00;;
32932;SDS011;19444;50.518;10.870;2022-07-29T16:19:24;4.13;;;2.20;;
32932;SDS011;19444;50.518;10.870;2022-07-29T16:22:21;5.53;;;3.13;;
32932;SDS011;19444;50.518;10.870;2022-07-29T16:25:17;4.18;;;2.47;;
32932;SDS011;19444;50.518;10.870;2022-07-29T16:28:14;2.70;;;2.50;;
32932;SDS011;19444;50.518;10.870;2022-07-29T16:31:12;3.20;;;2.85;;
32932;SDS011;19444;50.518;10.870;2022-07-29T16:34:09;3.78;;;2.08;;
32932;SDS011;19444;50.518;10.870;2022-07-29T16:37:06;2.70;;;2.50;;
32932;SDS011;19444;50.518;10.870;2022-07-29T16:40:04;3.83;;;2.83;;
32932;SDS011;19444;50.518;10.870;2022-07-29T16:43:07;4.60;;;2.25;;
32932;SDS011;19444;50.518;10.870;2022-07-29T16:46:06;2.88;;;2.53;;
32932;SDS011;19444;50.518;10.870;2022-07-29T16:49:09;3.45;;;2.80;;
32932;SDS011;19444;50.518;10.870;2022-07-29T16:52:06;3.78;;;2.72;;
32932;SDS011;19444;50.518;10.870;2022-07-29T16:55:03;3.38;;;2.80;;
32932;SDS011;19444;50.518;10.870;2022-07-29T16:58:00;4.72;;;3.03;;
32932;SDS011;19444;50.518;10.870;2022-07-29T17:00:58;3.70;;;2.97;;
32932;SDS011;19444;50.518;10.870;2022-07-29T17:03:55;3.63;;;2.72;;
32932;SDS011;19444;50.518;10.870;2022-07-29T17:07:01;3.20;;;2.20;;
32932;SDS011;19444;50.518;10.870;2022-07-29T17:09:58;3.40;;;2.67;;
32932;SDS011;19444;50.518;10.870;2022-07-29T17:12:59;4.68;;;2.67;;
32932;SDS011;19444;50.518;10.870;2022-07-29T17:15:56;5.00;;;2.67;;
32932;SDS011;19444;50.518;10.870;2022-07-29T17:18:56;2.45;;;2.13;;
32932;SDS011;19444;50.518;10.870;2022-07-29T17:21:52;3.78;;;2.40;;
32932;SDS011;19444;50.518;10.870;2022-07-29T17:25:02;5.93;;;2.85;;
32932;SDS011;19444;50.518;10.870;2022-07-29T17:27:59;4.70;;;2.90;;
32932;SDS011;19444;50.518;10.870;2022-07-29T17:30:56;4.00;;;2.65;;
32932;SDS011;19444;50.518;10.870;2022-07-29T17:33:53;4.57;;;3.30;;
32932;SDS011;19444;50.518;10.870;2022-07-29T17:36:55;3.85;;;2.88;;
32932;SDS011;19444;50.518;10.870;2022-07-29T17:39:52;5.43;;;3.20;;
32932;SDS011;19444;50.518;10.870;2022-07-29T17:42:55;4.88;;;3.00;;
32932;SDS011;19444;50.518;10.870;2022-07-29T17:45:52;3.38;;;3.08;;
32932;SDS011;19444;50.518;10.870;2022-07-29T17:48:55;6.07;;;3.45;;
32932;SDS011;19444;50.518;10.870;2022-07-29T17:51:52;4.45;;;2.60;;
32932;SDS011;19444;50.518;10.870;2022-07-29T17:54:55;4.90;;;3.40;;
32932;SDS011;19444;50.518;10.870;2022-07-29T17:57:52;3.88;;;3.05;;
32932;SDS011;19444;50.518;10.870;2022-07-29T18:00:55;4.63;;;2.47;;
32932;SDS011;19444;50.518;10.870;2022-07-29T18:03:52;5.13;;;3.38;;
32932;SDS011;19444;50.518;10.870;2022-07-29T18:06:54;6.05;;;3.20;;
32932;SDS011;19444;50.518;10.870;2022-07-29T18:09:52;5.47;;;3.17;;
32932;SDS011;19444;50.518;10.870;2022-07-29T18:12:55;3.28;;;2.92;;
32932;SDS011;19444;50.518;10.870;2022-07-29T18:15:52;5.45;;;3.03;;
32932;SDS011;19444;50.518;10.870;2022-07-29T18:18:55;4.60;;;3.60;;
32932;SDS011;19444;50.518;10.870;2022-07-29T18:21:52;4.45;;;3.35;;
32932;SDS011;19444;50.518;10.870;2022-07-29T18:24:51;5.05;;;3.85;;
32932;SDS011;19444;50.518;10.870;2022-07-29T18:27:48;5.65;;;4.30;;
32932;SDS011;19444;50.518;10.870;2022-07-29T18:30:45;4.60;;;3.75;;
32932;SDS011;19444;50.518;10.870;2022-07-29T18:33:43;4.43;;;2.72;;
32932;SDS011;19444;50.518;10.870;2022-07-29T18:36:40;4.07;;;2.97;;
32932;SDS011;19444;50.518;10.870;2022-07-29T18:39:36;4.72;;;3.10;;
32932;SDS011;19444;50.518;10.870;2022-07-29T18:42:33;3.97;;;3.30;;
32932;SDS011;19444;50.518;10.870;2022-07-29T18:45:30;5.22;;;3.00;;